createdAt,value
2022-11-19T00:02:17.071Z,0.56
2022-11-19T00:04:43.476Z,0.51
2022-11-19T00:07:12.601Z,0.46
2022-11-19T00:09:39.370Z,0.51
2022-11-19T00:12:05.762Z,0.71
2022-11-19T00:14:32.113Z,0.55
2022-11-19T00:16:58.457Z,0.59
2022-11-19T00:19:24.797Z,0.55
2022-11-19T00:21:51.128Z,0.53
2022-11-19T00:24:17.529Z,0.53
2022-11-19T00:26:43.860Z,0.57
2022-11-19T00:29:13.182Z,0.45
2022-11-19T00:31:41.849Z,0.46
2022-11-19T00:34:08.223Z,0.42
2022-11-19T00:36:34.676Z,0.47
2022-11-19T00:39:01.020Z,0.49
2022-11-19T00:41:27.393Z,0.70
2022-11-19T00:43:53.850Z,0.64
2022-11-19T00:46:20.184Z,0.57
2022-11-19T00:48:46.558Z,0.72
2022-11-19T00:51:12.951Z,0.82
2022-11-19T00:53:39.342Z,0.89
2022-11-19T00:56:05.760Z,0.67
2022-11-19T00:58:32.177Z,0.60
2022-11-19T01:00:58.523Z,0.82
2022-11-19T01:03:24.903Z,0.73
2022-11-19T01:05:51.290Z,0.65
2022-11-19T01:08:17.676Z,0.85
2022-11-19T01:10:44.074Z,0.60
2022-11-19T01:13:10.394Z,0.86
2022-11-19T01:15:36.882Z,1.05
2022-11-19T01:18:03.226Z,1.28
2022-11-19T01:20:29.712Z,1.21
2022-11-19T01:22:56.174Z,1.06
2022-11-19T01:25:22.547Z,1.01
2022-11-19T01:27:48.940Z,0.90
2022-11-19T01:30:15.337Z,1.17
2022-11-19T01:32:41.729Z,1.11
2022-11-19T01:35:10.495Z,1.25
2022-11-19T01:37:36.886Z,1.44
2022-11-19T01:40:03.267Z,1.43
2022-11-19T01:42:29.603Z,1.41
2022-11-19T01:44:55.995Z,1.34
2022-11-19T01:47:22.361Z,1.25
2022-11-19T01:49:48.758Z,1.09
2022-11-19T01:52:15.116Z,1.08
2022-11-19T01:54:41.625Z,1.21
2022-11-19T01:57:07.978Z,1.27
2022-11-19T01:59:34.337Z,1.32
2022-11-19T02:02:03.210Z,1.42
2022-11-19T02:04:29.588Z,1.53
2022-11-19T02:06:56.030Z,1.62
2022-11-19T02:09:22.400Z,1.44
2022-11-19T02:11:48.749Z,1.34
2022-11-19T02:14:15.175Z,1.35
2022-11-19T02:16:41.555Z,1.47
2022-11-19T02:19:08.021Z,1.76
2022-11-19T02:21:34.406Z,1.39
2022-11-19T02:24:00.771Z,1.50
2022-11-19T02:26:27.184Z,1.34
2022-11-19T02:28:56.505Z,1.34
2022-11-19T02:31:22.866Z,1.33
2022-11-19T02:33:49.224Z,1.60
2022-11-19T02:36:15.638Z,1.55
2022-11-19T02:38:42.042Z,1.49
2022-11-19T02:41:08.366Z,1.71
2022-11-19T02:43:34.757Z,1.41
2022-11-19T02:46:01.139Z,1.55
2022-11-19T02:48:27.557Z,1.22
2022-11-19T02:50:55.010Z,1.59
2022-11-19T02:53:21.607Z,1.43
2022-11-19T02:55:47.977Z,1.49
2022-11-19T02:58:14.317Z,1.58
2022-11-19T03:00:40.668Z,1.45
2022-11-19T03:03:07.085Z,1.47
2022-11-19T03:05:33.463Z,1.39
2022-11-19T03:07:59.828Z,1.48
2022-11-19T03:10:26.221Z,1.74
2022-11-19T03:12:52.595Z,1.68
2022-11-19T03:15:19.049Z,1.89
2022-11-19T03:17:45.425Z,1.46
2022-11-19T03:20:11.784Z,1.71
2022-11-19T03:22:38.170Z,1.68
2022-11-19T03:25:04.553Z,1.81
2022-11-19T03:27:30.931Z,1.91
2022-11-19T03:29:57.313Z,1.99
2022-11-19T03:32:23.776Z,1.90
2022-11-19T03:34:50.195Z,1.82
2022-11-19T03:37:16.551Z,1.85
2022-11-19T03:39:42.915Z,1.81
2022-11-19T03:42:09.287Z,1.49
2022-11-19T03:44:35.638Z,1.79
2022-11-19T03:47:01.976Z,1.71
2022-11-19T03:49:28.295Z,1.50
2022-11-19T03:51:54.636Z,1.29
2022-11-19T03:54:21.015Z,1.10
2022-11-19T03:56:47.346Z,1.09
2022-11-19T03:59:13.777Z,1.00
2022-11-19T04:01:40.365Z,0.93
2022-11-19T04:04:06.756Z,0.83
2022-11-19T04:06:33.132Z,0.93
2022-11-19T04:08:59.573Z,0.92
2022-11-19T04:13:51.294Z,0.82
2022-11-19T04:16:17.664Z,0.80
2022-11-19T04:18:44.042Z,0.79
2022-11-19T04:21:10.434Z,0.95
2022-11-19T04:23:36.839Z,1.05
2022-11-19T04:26:03.269Z,1.03
2022-11-19T04:28:29.687Z,1.03
2022-11-19T04:30:56.065Z,0.94
2022-11-19T04:33:22.525Z,1.05
2022-11-19T04:35:48.886Z,0.85
2022-11-19T04:38:15.238Z,1.06
2022-11-19T04:40:41.764Z,1.03
2022-11-19T04:43:08.154Z,1.02
2022-11-19T04:45:34.505Z,1.17
2022-11-19T04:48:00.914Z,1.31
2022-11-19T04:50:27.238Z,1.50
2022-11-19T04:52:53.600Z,0.81
2022-11-19T04:55:19.972Z,0.70
2022-11-19T04:57:46.653Z,0.70
2022-11-19T05:00:13.033Z,0.74
2022-11-19T05:02:39.395Z,0.72
2022-11-19T05:05:05.759Z,0.71
2022-11-19T05:07:32.123Z,0.88
2022-11-19T05:09:58.531Z,0.98
2022-11-19T05:12:24.958Z,1.06
2022-11-19T05:14:54.062Z,0.94
2022-11-19T05:17:20.433Z,0.94
2022-11-19T05:19:46.770Z,1.07
2022-11-19T05:22:13.184Z,1.26
2022-11-19T05:24:39.543Z,1.08
2022-11-19T05:27:05.917Z,1.12
2022-11-19T05:29:32.245Z,1.10
2022-11-19T05:31:58.561Z,1.23
2022-11-19T05:34:24.953Z,1.12
2022-11-19T05:36:51.279Z,1.01
2022-11-19T05:39:22.236Z,1.05
2022-11-19T05:41:48.837Z,1.09
2022-11-19T05:44:15.249Z,0.96
2022-11-19T05:46:41.671Z,0.99
2022-11-19T05:49:08.036Z,1.21
2022-11-19T05:51:34.458Z,2.12
2022-11-19T05:54:00.888Z,4.05
2022-11-19T05:56:27.335Z,4.91
2022-11-19T05:58:53.718Z,4.42
2022-11-19T06:01:20.108Z,2.69
2022-11-19T06:03:46.518Z,1.61
2022-11-19T06:06:12.960Z,1.20
2022-11-19T06:08:39.356Z,1.35
2022-11-19T06:11:05.747Z,1.04
2022-11-19T06:13:32.096Z,1.02
2022-11-19T06:15:58.431Z,1.34
2022-11-19T06:18:24.766Z,1.31
2022-11-19T06:20:51.199Z,1.18
2022-11-19T06:23:17.808Z,1.17
2022-11-19T06:25:44.161Z,1.25
2022-11-19T06:28:10.537Z,1.58
2022-11-19T06:30:36.937Z,2.25
2022-11-19T06:33:03.341Z,1.57
2022-11-19T06:35:29.732Z,1.61
2022-11-19T06:38:02.565Z,1.87
2022-11-19T06:40:28.950Z,2.49
2022-11-19T06:42:55.348Z,3.38
2022-11-19T06:45:21.736Z,4.40
2022-11-19T06:47:48.089Z,2.68
2022-11-19T06:50:14.485Z,1.58
2022-11-19T06:52:40.865Z,1.60
2022-11-19T06:55:09.345Z,3.34
2022-11-19T06:57:35.985Z,4.60
2022-11-19T07:00:02.383Z,5.32
2022-11-19T07:02:28.862Z,7.18
2022-11-19T07:04:55.368Z,6.68
2022-11-19T07:07:21.836Z,6.08
2022-11-19T07:09:48.237Z,6.24
2022-11-19T07:12:14.608Z,6.40
2022-11-19T07:14:41.045Z,6.09
2022-11-19T07:17:07.460Z,4.52
2022-11-19T07:19:33.861Z,7.85
2022-11-19T07:22:00.280Z,20.89
2022-11-19T07:24:26.658Z,18.80
2022-11-19T07:26:53.059Z,7.99
2022-11-19T07:29:19.828Z,6.34
2022-11-19T07:31:46.438Z,15.93
2022-11-19T07:34:12.782Z,15.32
2022-11-19T07:36:39.141Z,7.59
2022-11-19T07:39:05.491Z,4.95
2022-11-19T07:41:31.880Z,3.36
2022-11-19T07:43:58.320Z,2.39
2022-11-19T07:46:24.712Z,1.83
2022-11-19T07:48:51.149Z,1.64
2022-11-19T07:51:17.561Z,1.77
2022-11-19T07:53:43.964Z,1.90
2022-11-19T07:56:10.397Z,1.61
2022-11-19T07:58:36.821Z,1.77
2022-11-19T08:01:03.211Z,1.65
2022-11-19T08:03:29.664Z,1.46
2022-11-19T08:05:56.151Z,1.41
2022-11-19T08:08:22.622Z,1.40
2022-11-19T08:10:49.050Z,1.46
2022-11-19T08:13:15.419Z,1.43
2022-11-19T08:15:49.268Z,1.45
2022-11-19T08:18:15.720Z,1.61
2022-11-19T08:20:42.098Z,1.52
2022-11-19T08:23:08.485Z,4.08
2022-11-19T08:25:36.315Z,5.30
2022-11-19T08:28:05.906Z,1.81
2022-11-19T08:30:32.356Z,1.45
2022-11-19T08:32:58.741Z,1.48
2022-11-19T08:35:25.220Z,2.57
2022-11-19T08:37:51.734Z,2.36
2022-11-19T08:40:18.189Z,1.68
2022-11-19T08:42:44.535Z,1.46
2022-11-19T08:45:10.895Z,1.34
2022-11-19T08:47:40.402Z,1.49
2022-11-19T08:50:06.974Z,1.57
2022-11-19T08:52:33.416Z,1.74
2022-11-19T08:54:59.786Z,1.72
2022-11-19T08:57:29.112Z,1.67
2022-11-19T08:59:55.557Z,1.84
2022-11-19T09:02:22.017Z,2.10
2022-11-19T09:04:48.424Z,2.37
2022-11-19T09:07:14.801Z,2.33
2022-11-19T09:09:41.217Z,2.15
2022-11-19T09:12:07.589Z,2.00
2022-11-19T09:14:33.983Z,2.11
2022-11-19T09:17:03.097Z,1.89
2022-11-19T09:19:29.589Z,1.52
2022-11-19T09:21:56.023Z,1.43
2022-11-19T09:24:22.625Z,1.58
2022-11-19T09:26:52.804Z,1.45
2022-11-19T09:29:19.658Z,1.60
2022-11-19T09:31:46.075Z,1.46
2022-11-19T09:34:12.495Z,1.37
2022-11-19T09:36:38.959Z,1.49
2022-11-19T09:39:05.361Z,1.43
2022-11-19T09:41:31.692Z,1.29
2022-11-19T09:43:58.119Z,1.20
2022-11-19T09:46:24.547Z,1.11
2022-11-19T09:48:51.303Z,1.23
2022-11-19T09:51:17.781Z,1.06
2022-11-19T09:53:44.323Z,1.02
2022-11-19T09:56:10.745Z,1.18
2022-11-19T09:58:40.044Z,1.36
2022-11-19T10:01:06.568Z,1.28
2022-11-19T10:03:44.611Z,1.23
2022-11-19T10:06:17.895Z,1.30
2022-11-19T10:08:44.371Z,1.49
2022-11-19T10:11:10.908Z,1.31
2022-11-19T10:13:37.376Z,1.41
2022-11-19T10:16:06.142Z,1.27
2022-11-19T10:18:32.508Z,1.28
2022-11-19T10:20:58.937Z,1.71
2022-11-19T10:23:25.368Z,1.81
2022-11-19T10:25:51.815Z,1.54
2022-11-19T10:28:19.548Z,1.62
2022-11-19T10:30:45.959Z,1.41
2022-11-19T10:33:12.349Z,1.51
2022-11-19T10:35:38.907Z,1.53
2022-11-19T10:38:05.438Z,1.43
2022-11-19T10:40:31.851Z,1.30
2022-11-19T10:42:58.337Z,1.21
2022-11-19T10:45:24.884Z,1.22
2022-11-19T10:47:51.269Z,1.18
2022-11-19T10:50:18.025Z,1.29
2022-11-19T10:52:44.639Z,1.40
2022-11-19T10:55:11.074Z,1.25
2022-11-19T10:57:37.504Z,1.18
2022-11-19T11:00:04.009Z,1.37
2022-11-19T11:02:30.355Z,1.25
2022-11-19T11:04:56.744Z,1.52
2022-11-19T11:07:23.212Z,1.54
2022-11-19T11:09:49.748Z,1.30
2022-11-19T11:12:16.162Z,1.42
2022-11-19T11:14:42.762Z,1.53
2022-11-19T11:17:09.167Z,1.48
2022-11-19T11:19:35.769Z,1.40
2022-11-19T11:22:02.231Z,1.53
2022-11-19T11:24:28.749Z,1.25
2022-11-19T11:26:55.110Z,1.26
2022-11-19T11:29:21.793Z,1.16
2022-11-19T11:31:48.340Z,1.14
2022-11-19T11:34:17.420Z,1.24
2022-11-19T11:36:43.786Z,1.30
2022-11-19T11:39:10.269Z,1.38
2022-11-19T11:44:23.140Z,1.36
2022-11-19T11:46:49.620Z,1.29
2022-11-19T11:49:16.035Z,1.22
2022-11-19T11:51:42.569Z,1.29
2022-11-19T11:54:11.531Z,1.25
2022-11-19T11:56:41.514Z,1.23
2022-11-19T11:59:07.948Z,1.57
2022-11-19T12:01:34.485Z,1.46
2022-11-19T12:04:01.113Z,1.21
2022-11-19T12:06:27.594Z,1.30
2022-11-19T12:08:54.120Z,1.24
2022-11-19T12:11:20.540Z,1.27
2022-11-19T12:13:47.016Z,1.66
2022-11-19T12:16:13.431Z,1.85
2022-11-19T12:18:39.856Z,1.60
2022-11-19T12:21:10.267Z,1.08
2022-11-19T12:23:38.019Z,1.08
2022-11-19T12:26:04.618Z,1.18
2022-11-19T12:28:31.253Z,1.14
2022-11-19T12:30:57.655Z,1.18
2022-11-19T12:33:24.077Z,1.17
2022-11-19T12:35:50.423Z,1.12
2022-11-19T12:38:20.499Z,1.18
2022-11-19T12:40:49.096Z,1.17
2022-11-19T12:43:15.457Z,1.17
2022-11-19T12:45:41.848Z,1.37
2022-11-19T12:48:08.294Z,1.09
2022-11-19T12:50:34.719Z,1.16
2022-11-19T12:53:03.892Z,1.12
2022-11-19T12:55:30.304Z,1.12
2022-11-19T12:57:56.652Z,1.07
2022-11-19T13:00:23.075Z,1.19
2022-11-19T13:02:49.471Z,1.15
2022-11-19T13:05:16.028Z,1.10
2022-11-19T13:07:42.575Z,1.07
2022-11-19T13:10:09.122Z,1.11
2022-11-19T13:12:35.547Z,1.06
2022-11-19T13:15:01.973Z,1.28
2022-11-19T13:17:28.334Z,1.07
2022-11-19T13:19:54.746Z,0.98
2022-11-19T13:22:21.146Z,1.01
2022-11-19T13:24:47.474Z,1.04
2022-11-19T13:27:16.522Z,1.02
2022-11-19T13:29:45.353Z,0.94
2022-11-19T13:32:11.872Z,1.06
2022-11-19T13:34:38.364Z,1.05
2022-11-19T13:37:04.729Z,1.10
2022-11-19T13:39:31.127Z,0.97
2022-11-19T13:41:57.475Z,0.98
2022-11-19T13:44:23.927Z,1.14
2022-11-19T13:46:50.291Z,0.95
2022-11-19T13:49:16.790Z,0.95
2022-11-19T13:51:43.186Z,1.07
2022-11-19T13:54:10.685Z,1.07
2022-11-19T13:56:37.051Z,1.20
2022-11-19T13:59:03.483Z,1.33
2022-11-19T14:01:29.864Z,1.13
2022-11-19T14:03:56.533Z,1.14
2022-11-19T14:06:23.051Z,1.22
2022-11-19T14:08:49.448Z,1.23
2022-11-19T14:11:15.842Z,1.50
2022-11-19T14:13:42.254Z,1.51
2022-11-19T14:16:08.621Z,1.42
2022-11-19T14:18:34.961Z,1.42
2022-11-19T14:21:01.346Z,1.57
2022-11-19T14:23:27.739Z,1.66
2022-11-19T14:25:54.127Z,1.57
2022-11-19T14:28:20.560Z,1.54
2022-11-19T14:30:46.960Z,1.50
2022-11-19T14:33:13.314Z,1.43
2022-11-19T14:35:39.687Z,1.80
2022-11-19T14:38:06.069Z,1.64
2022-11-19T14:40:32.511Z,1.59
2022-11-19T14:42:58.966Z,1.46
2022-11-19T14:45:25.361Z,1.52
2022-11-19T14:47:51.747Z,1.66
2022-11-19T14:50:18.148Z,1.96
2022-11-19T14:52:44.615Z,1.85
2022-11-19T14:55:11.239Z,1.74
2022-11-19T14:57:37.655Z,1.74
2022-11-19T15:00:04.179Z,1.92
2022-11-19T15:02:30.712Z,3.40
2022-11-19T15:04:57.053Z,3.60
2022-11-19T15:07:23.498Z,3.37
2022-11-19T15:09:50.116Z,3.30
2022-11-19T15:12:16.652Z,3.37
2022-11-19T15:14:43.016Z,2.61
2022-11-19T15:17:11.874Z,1.80
2022-11-19T15:19:38.306Z,1.80
2022-11-19T15:22:04.760Z,1.64
2022-11-19T15:24:31.117Z,1.59
2022-11-19T15:26:57.523Z,1.77
2022-11-19T15:29:23.896Z,2.31
2022-11-19T15:31:51.628Z,2.19
2022-11-19T15:34:18.085Z,3.50
2022-11-19T15:36:44.684Z,2.98
2022-11-19T15:39:11.070Z,2.82
2022-11-19T15:41:37.682Z,2.89
2022-11-19T15:44:04.205Z,2.60
2022-11-19T15:46:30.910Z,1.95
2022-11-19T15:48:57.481Z,2.09
2022-11-19T15:51:23.887Z,2.19
2022-11-19T15:53:50.419Z,1.87
2022-11-19T15:56:16.788Z,1.95
2022-11-19T15:58:43.314Z,1.90
2022-11-19T16:01:10.969Z,2.12
2022-11-19T16:03:37.414Z,1.67
2022-11-19T16:06:03.755Z,1.59
2022-11-19T16:08:30.162Z,1.55
2022-11-19T16:10:56.683Z,1.66
2022-11-19T16:13:23.188Z,1.44
2022-11-19T16:15:49.578Z,1.83
2022-11-19T16:18:16.104Z,1.77
2022-11-19T16:20:43.936Z,1.42
2022-11-19T16:23:10.474Z,1.84
2022-11-19T16:25:41.120Z,4.63
2022-11-19T16:28:09.722Z,5.15
2022-11-19T16:30:38.923Z,2.48
2022-11-19T16:33:05.363Z,2.21
2022-11-19T16:35:31.779Z,1.87
2022-11-19T16:37:58.364Z,1.71
2022-11-19T16:40:24.750Z,1.84
2022-11-19T16:45:34.443Z,1.42
2022-11-19T16:48:00.847Z,1.42
2022-11-19T16:50:27.297Z,1.82
2022-11-19T16:52:53.750Z,1.77
2022-11-19T16:55:20.239Z,1.97
2022-11-19T16:57:46.655Z,2.39
2022-11-19T17:00:13.192Z,3.32
2022-11-19T17:02:39.697Z,2.98
2022-11-19T17:05:06.082Z,2.32
2022-11-19T17:07:32.563Z,1.72
2022-11-19T17:09:59.008Z,2.24
2022-11-19T17:12:27.471Z,2.14
2022-11-19T17:14:53.984Z,3.13
2022-11-19T17:17:20.434Z,3.80
2022-11-19T17:19:46.838Z,5.49
2022-11-19T17:22:13.201Z,2.52
2022-11-19T17:24:39.680Z,1.69
2022-11-19T17:27:06.137Z,1.67
2022-11-19T17:29:32.490Z,1.53
2022-11-19T17:31:58.840Z,1.51
2022-11-19T17:34:25.239Z,1.45
2022-11-19T17:36:51.742Z,1.37
2022-11-19T17:39:22.545Z,1.19
2022-11-19T17:41:51.552Z,1.17
2022-11-19T17:44:21.227Z,1.41
2022-11-19T17:46:47.951Z,1.32
2022-11-19T17:49:14.327Z,1.46
2022-11-19T17:51:40.819Z,1.50
2022-11-19T17:54:07.251Z,1.84
2022-11-19T17:56:33.642Z,2.58
2022-11-19T17:59:00.061Z,6.79
2022-11-19T18:01:26.684Z,8.63
2022-11-19T18:03:53.144Z,6.53
2022-11-19T18:06:21.830Z,13.94
2022-11-19T18:08:48.349Z,13.09
2022-11-19T18:11:15.679Z,3.80
2022-11-19T18:13:43.403Z,4.04
2022-11-19T18:16:09.847Z,4.11
2022-11-19T18:18:36.331Z,2.69
2022-11-19T18:21:02.738Z,3.08
2022-11-19T18:23:29.197Z,3.62
2022-11-19T18:25:55.704Z,2.86
2022-11-19T18:28:22.145Z,2.46
2022-11-19T18:30:48.507Z,1.77
2022-11-19T18:33:15.033Z,1.17
2022-11-19T18:35:41.618Z,1.22
2022-11-19T18:38:08.059Z,1.25
2022-11-19T18:40:34.456Z,1.34
2022-11-19T18:43:00.969Z,1.46
2022-11-19T18:45:28.751Z,1.56
2022-11-19T18:47:55.127Z,1.37
2022-11-19T18:50:25.442Z,1.27
2022-11-19T18:52:55.824Z,1.23
2022-11-19T18:55:22.264Z,1.27
2022-11-19T18:57:48.798Z,1.35
2022-11-19T19:00:15.200Z,1.28
2022-11-19T19:02:41.720Z,1.27
2022-11-19T19:05:08.069Z,1.00
2022-11-19T19:07:34.541Z,1.14
2022-11-19T19:10:01.024Z,1.49
2022-11-19T19:12:27.522Z,1.33
2022-11-19T19:14:53.944Z,0.90
2022-11-19T19:17:20.362Z,1.12
2022-11-19T19:19:46.916Z,1.03
2022-11-19T19:22:13.346Z,0.99
2022-11-19T19:24:39.786Z,1.28
2022-11-19T19:27:06.195Z,1.22
2022-11-19T19:29:32.672Z,1.30
2022-11-19T19:31:59.081Z,1.38
2022-11-19T19:34:25.515Z,1.54
2022-11-19T19:36:53.603Z,1.52
2022-11-19T19:39:22.424Z,2.51
2022-11-19T19:41:48.885Z,2.18
2022-11-19T19:44:15.347Z,1.97
2022-11-19T19:46:41.674Z,1.66
2022-11-19T19:49:08.055Z,1.46
2022-11-19T19:51:34.446Z,1.39
2022-11-19T19:54:00.894Z,1.73
2022-11-19T19:56:28.713Z,1.27
2022-11-19T19:58:55.091Z,1.16
2022-11-19T20:01:21.549Z,1.11
2022-11-19T20:03:53.086Z,1.37
2022-11-19T20:06:20.829Z,2.26
2022-11-19T20:08:47.287Z,2.69
2022-11-19T20:11:13.668Z,2.21
2022-11-19T20:13:40.091Z,2.46
2022-11-19T20:16:06.426Z,1.51
2022-11-19T20:18:32.867Z,1.32
2022-11-19T20:20:59.248Z,1.55
2022-11-19T20:23:25.686Z,1.90
2022-11-19T20:25:52.183Z,1.85
2022-11-19T20:28:18.559Z,1.60
2022-11-19T20:30:44.976Z,1.70
2022-11-19T20:33:11.485Z,1.43
2022-11-19T20:35:38.009Z,1.37
2022-11-19T20:38:04.448Z,1.43
2022-11-19T20:40:30.825Z,1.73
2022-11-19T20:42:57.229Z,1.77
2022-11-19T20:45:23.606Z,1.42
2022-11-19T20:47:50.021Z,1.48
2022-11-19T20:50:16.386Z,1.31
2022-11-19T20:52:42.765Z,1.28
2022-11-19T20:55:09.154Z,1.69
2022-11-19T20:57:35.518Z,1.84
2022-11-19T21:00:01.935Z,1.85
2022-11-19T21:02:28.375Z,2.15
2022-11-19T21:04:54.887Z,1.38
2022-11-19T21:07:22.535Z,1.46
2022-11-19T21:09:49.093Z,1.60
2022-11-19T21:12:15.628Z,1.31
2022-11-19T21:14:42.237Z,1.19
2022-11-19T21:17:08.634Z,1.39
2022-11-19T21:19:35.003Z,1.70
2022-11-19T21:22:01.472Z,1.54
2022-11-19T21:24:27.947Z,1.47
2022-11-19T21:26:54.301Z,1.53
2022-11-19T21:29:21.113Z,1.48
2022-11-19T21:31:47.660Z,1.72
2022-11-19T21:34:14.010Z,1.69
2022-11-19T21:36:40.487Z,1.61
2022-11-19T21:39:06.910Z,1.63
2022-11-19T21:41:33.346Z,1.76
2022-11-19T21:43:59.711Z,1.70
2022-11-19T21:46:26.130Z,1.76
2022-11-19T21:48:52.583Z,1.86
2022-11-19T21:51:24.284Z,1.83
2022-11-19T21:54:00.485Z,1.97
2022-11-19T21:56:26.909Z,2.16
2022-11-19T21:58:53.376Z,3.04
2022-11-19T22:01:19.861Z,2.57
2022-11-19T22:03:46.337Z,1.64
2022-11-19T22:06:12.725Z,1.83
2022-11-19T22:08:39.154Z,1.70
2022-11-19T22:11:05.540Z,1.42
2022-11-19T22:13:31.969Z,1.49
2022-11-19T22:15:58.310Z,1.54
2022-11-19T22:18:24.716Z,1.78
2022-11-19T22:20:51.070Z,1.55
2022-11-19T22:23:22.976Z,1.53
2022-11-19T22:25:50.655Z,1.53
2022-11-19T22:28:17.005Z,1.81
2022-11-19T22:30:43.353Z,1.68
2022-11-19T22:33:09.775Z,1.47
2022-11-19T22:35:36.153Z,1.70
2022-11-19T22:38:03.820Z,1.26
2022-11-19T22:40:30.227Z,1.48
2022-11-19T22:42:57.535Z,1.66
2022-11-19T22:45:23.968Z,1.46
2022-11-19T22:47:50.353Z,1.38
2022-11-19T22:50:16.700Z,1.49
2022-11-19T22:52:43.041Z,1.56
2022-11-19T22:55:09.398Z,1.38
2022-11-19T22:57:35.841Z,1.36
2022-11-19T23:00:02.189Z,1.45
2022-11-19T23:02:28.569Z,1.52
2022-11-19T23:04:55.024Z,1.72
2022-11-19T23:07:21.438Z,1.78
2022-11-19T23:09:47.867Z,1.80
2022-11-19T23:12:14.247Z,2.10
2022-11-19T23:14:40.710Z,2.11
2022-11-19T23:17:07.286Z,2.20
2022-11-19T23:19:33.688Z,2.28
2022-11-19T23:22:00.410Z,2.07
2022-11-19T23:24:26.723Z,2.16
2022-11-19T23:26:53.170Z,2.04
2022-11-19T23:29:22.573Z,2.08
2022-11-19T23:31:49.255Z,1.94
2022-11-19T23:34:15.644Z,1.87
2022-11-19T23:36:42.373Z,2.21
2022-11-19T23:39:08.787Z,2.40
2022-11-19T23:41:35.376Z,2.21
2022-11-19T23:44:01.765Z,2.26
2022-11-19T23:46:28.182Z,1.91
2022-11-19T23:48:54.552Z,1.75
2022-11-19T23:51:24.109Z,1.92
2022-11-19T23:53:50.639Z,1.99
2022-11-19T23:56:17.023Z,1.92
2022-11-19T23:58:43.966Z,1.98
